Time;durP1;ratioP1;P1;durP2;ratioP2;P2;SDS_P1;SDS_P2;PMS_P1;PMS_P2;Temp;Humidity;BMP_temperature;BMP_pressure;BME280_temperature;BME280_humidity;BME280_pressure;Samples;Min_cycle;Max_cycle;Signal;HPM_P1;HPM_P2
2021/12/28 05:50:54;;;;;;;15.68;8.08;;;;;;;-5.38;85.12;100216.20;1697262;83;22797;-35
2021/12/28 05:53:21;;;;;;;15.80;8.78;;;;;;;-5.37;85.32;100216.69;1729379;81;21010;-42
2021/12/28 05:55:48;;;;;;;18.02;8.60;;;;;;;-5.33;85.35;100212.67;1745298;80;21059;-36
2021/12/28 05:58:15;;;;;;;17.50;8.45;;;;;;;-5.30;85.38;100219.61;1756222;80;21485;-36
2021/12/28 06:00:42;;;;;;;15.38;8.20;;;;;;;-5.28;85.49;100219.30;1748643;80;21029;-42
2021/12/28 06:03:09;;;;;;;19.23;7.85;;;;;;;-5.25;85.68;100217.83;1750110;81;20980;-41
2021/12/28 06:05:36;;;;;;;11.45;7.55;;;;;;;-5.22;85.92;100223.14;1746669;80;21055;-42
2021/12/28 06:08:02;;;;;;;19.37;9.03;;;;;;;-5.19;85.94;100227.14;1748641;81;21000;-36
2021/12/28 06:10:30;;;;;;;14.73;7.90;;;;;;;-5.15;85.86;100225.66;1746721;81;21068;-35
2021/12/28 06:12:57;;;;;;;21.75;9.63;;;;;;;-5.14;85.72;100215.55;1746397;80;20968;-36
2021/12/28 06:15:25;;;;;;;14.73;7.95;;;;;;;-5.11;85.61;100219.94;1744209;81;20988;-42
2021/12/28 06:17:52;;;;;;;16.27;8.48;;;;;;;-5.11;85.49;100214.84;1746795;80;20990;-41
2021/12/28 06:20:19;;;;;;;17.37;8.45;;;;;;;-5.07;85.59;100210.41;1745192;81;20972;-42
2021/12/28 06:22:46;;;;;;;18.40;9.75;;;;;;;-5.02;85.34;100205.59;1738509;81;20981;-36
2021/12/28 06:25:13;;;;;;;18.65;9.35;;;;;;;-5.00;85.21;100205.28;1743864;81;21430;-43
2021/12/28 06:27:39;;;;;;;16.02;7.80;;;;;;;-4.99;85.11;100210.47;1741102;80;20992;-43
2021/12/28 06:30:08;;;;;;;18.62;9.15;;;;;;;-4.94;85.35;100210.75;1743587;81;20989;-38
2021/12/28 06:32:35;;;;;;;18.75;8.75;;;;;;;-4.90;85.22;100202.10;1742322;81;21035;-36
2021/12/28 06:35:02;;;;;;;16.82;8.43;;;;;;;-4.87;85.13;100207.41;1741368;81;21003;-38
2021/12/28 06:37:28;;;;;;;23.80;12.70;;;;;;;-4.85;85.35;100208.37;1737078;81;22417;-43
2021/12/28 06:39:55;;;;;;;17.85;8.90;;;;;;;-4.78;85.45;100203.23;1741380;81;20996;-45
2021/12/28 06:42:22;;;;;;;13.62;7.83;;;;;;;-4.74;85.47;100200.08;1740664;80;21396;-37
2021/12/28 06:44:51;;;;;;;13.78;8.10;;;;;;;-4.70;85.40;100193.45;1741642;81;21369;-43
2021/12/28 06:47:17;;;;;;;14.43;7.65;;;;;;;-4.65;85.36;100191.66;1742482;81;21618;-42
2021/12/28 06:49:45;;;;;;;12.03;6.92;;;;;;;-4.61;85.40;100186.34;1744025;81;21533;-37
2021/12/28 06:52:13;;;;;;;13.03;7.03;;;;;;;-4.58;85.26;100187.78;1733814;81;21490;-35
2021/12/28 06:54:44;;;;;;;14.20;7.10;;;;;;;-4.57;85.17;100187.90;1692136;83;21401;-43
2021/12/28 06:57:12;;;;;;;13.05;7.85;;;;;;;-4.58;85.14;100179.76;1725617;81;22061;-36
2021/12/28 06:59:45;;;;;;;12.75;7.15;;;;;;;-4.57;85.33;100178.09;1690793;83;20998;-36
2021/12/28 07:02:13;;;;;;;14.47;7.35;;;;;;;-4.53;85.44;100176.56;1727881;81;21090;-43
2021/12/28 07:04:41;;;;;;;13.50;6.90;;;;;;;-4.53;85.42;100174.89;1692206;83;20987;-35
2021/12/28 07:07:07;;;;;;;15.43;7.25;;;;;;;-4.55;85.58;100165.87;1730896;81;21025;-43
2021/12/28 07:09:40;;;;;;;12.68;6.00;;;;;;;-4.51;85.89;100161.84;1688329;83;21551;-37
2021/12/28 07:12:14;;;;;;;12.80;7.25;;;;;;;-4.46;85.86;100160.43;1733209;81;21509;-38
2021/12/28 07:14:53;;;;;;;14.53;7.95;;;;;;;-4.40;85.75;100154.80;1730798;82;21503;-35
2021/12/28 07:17:32;;;;;;;12.30;6.53;;;;;;;-4.37;85.38;100151.12;1691831;83;21057;-42
2021/12/28 07:20:04;;;;;;;13.48;7.42;;;;;;;-4.35;85.11;100146.59;1732347;82;21036;-37
2021/12/28 07:23:38;;;;;;;14.43;6.45;;;;;;;-4.34;84.96;100144.52;1694302;83;21553;-43
2021/12/28 07:31:40;;;;;;;12.75;7.28;;;;;;;-4.31;84.69;100133.58;1728378;80;21087;-43
2021/12/28 07:34:49;;;;;;;12.43;7.12;;;;;;;-4.28;84.39;100138.88;1732959;82;21146;-35
2021/12/28 07:37:22;;;;;;;19.40;8.35;;;;;;;-4.29;84.08;100141.84;1692494;83;21075;-37
2021/12/28 07:39:50;;;;;;;;;;;;;;;-4.32;84.03;100132.70;1732724;81;21559;-36
2021/12/28 07:42:17;;;;;;;16.45;7.78;;;;;;;-4.34;83.77;100129.20;1731899;82;20152;-36
2021/12/28 07:44:45;;;;;;;15.78;8.43;;;;;;;-4.37;83.62;100132.84;1697925;82;21077;-43
2021/12/28 07:47:14;;;;;;;15.68;7.55;;;;;;;-4.40;83.45;100125.02;1674610;84;21443;-35
2021/12/28 07:49:41;;;;;;;14.18;7.65;;;;;;;-4.40;83.39;100130.12;1733141;81;20985;-42
2021/12/28 07:52:09;;;;;;;12.07;7.62;;;;;;;-4.42;83.24;100124.44;1727541;81;21721;-36
2021/12/28 07:54:37;;;;;;;17.50;8.10;;;;;;;-4.44;83.29;100121.80;1728630;82;21428;-36
2021/12/28 07:57:04;;;;;;;21.75;8.53;;;;;;;-4.44;83.30;100122.20;1740585;81;21033;-36
2021/12/28 07:59:32;;;;;;;19.15;9.18;;;;;;;-4.43;83.38;100124.83;1730870;82;21016;-36
2021/12/28 08:02:01;;;;;;;15.25;8.35;;;;;;;-4.40;83.58;100111.37;1736136;82;21059;-36
2021/12/28 08:04:28;;;;;;;14.73;8.33;;;;;;;-4.40;83.31;100108.42;1729221;82;20993;-35
2021/12/28 08:06:58;;;;;;;14.75;7.90;;;;;;;-4.41;83.39;100109.19;1731362;82;20993;-42
2021/12/28 08:09:25;;;;;;;15.23;8.18;;;;;;;-4.41;83.29;100107.91;1734002;82;21004;-35
2021/12/28 08:11:54;;;;;;;14.58;8.03;;;;;;;-4.43;83.16;100095.45;1738050;82;21537;-35
2021/12/28 08:14:21;;;;;;;16.23;8.70;;;;;;;-4.46;83.09;100096.58;1736431;81;21514;-37
2021/12/28 08:16:48;;;;;;;14.87;7.60;;;;;;;-4.48;83.16;100089.21;1732156;81;21088;-36
2021/12/28 08:19:17;;;;;;;18.02;9.10;;;;;;;-4.51;83.16;100080.11;1731032;81;21943;-43
2021/12/28 08:21:45;;;;;;;16.95;8.20;;;;;;;-4.51;83.23;100079.23;1734105;81;21556;-43
2021/12/28 08:24:12;;;;;;;11.78;6.85;;;;;;;-4.52;83.25;100080.92;1731507;80;20992;-44
2021/12/28 08:26:39;;;;;;;12.23;6.95;;;;;;;-4.52;83.48;100068.15;1731261;82;21048;-42
2021/12/28 08:29:07;;;;;;;11.63;7.78;;;;;;;-4.49;83.70;100063.20;1728283;80;20961;-36
2021/12/28 08:31:35;;;;;;;15.88;7.72;;;;;;;-4.47;83.76;100060.31;1734610;81;21677;-37
2021/12/28 08:34:03;;;;;;;11.30;6.65;;;;;;;-4.45;83.89;100050.21;1734082;81;21007;-45
2021/12/28 08:36:29;;;;;;;13.65;8.08;;;;;;;-4.47;84.04;100048.83;1735206;81;21032;-44
2021/12/28 08:38:56;;;;;;;15.15;6.92;;;;;;;-4.47;84.55;100039.01;1734858;80;21036;-36
2021/12/28 08:41:23;;;;;;;11.25;6.40;;;;;;;-4.45;84.90;100034.48;1734270;82;21509;-44
2021/12/28 08:43:58;;;;;;;10.50;6.40;;;;;;;-4.44;85.21;100036.23;1734045;81;25869;-44
2021/12/28 08:46:25;;;;;;;14.55;7.50;;;;;;;-4.40;85.22;100044.56;1735854;82;21441;-43
2021/12/28 08:48:53;;;;;;;13.80;7.87;;;;;;;-4.37;85.31;100037.05;1735879;81;21591;-42
2021/12/28 08:51:20;;;;;;;14.33;7.20;;;;;;;-4.31;85.22;100037.38;1735503;81;21035;-37
2021/12/28 08:53:47;;;;;;;12.75;6.53;;;;;;;-4.27;84.97;100034.61;1734431;82;21028;-36
2021/12/28 08:56:14;;;;;;;16.02;7.15;;;;;;;-4.23;84.91;100030.16;1734125;82;21707;-44
2021/12/28 08:58:44;;;;;;;12.90;6.45;;;;;;;-4.19;84.65;100031.19;1735137;80;21020;-35
2021/12/28 09:01:12;;;;;;;12.95;7.20;;;;;;;-4.15;84.31;100029.29;1669102;82;21123;-36
2021/12/28 09:03:41;;;;;;;15.10;7.20;;;;;;;-4.15;84.25;100021.22;1734227;82;21819;-36
2021/12/28 09:06:08;;;;;;;14.58;6.33;;;;;;;-4.14;84.12;100013.16;1735344;80;21091;-38
2021/12/28 09:08:38;;;;;;;10.98;6.37;;;;;;;-4.14;83.99;100014.03;1733110;80;21133;-35
2021/12/28 09:11:05;;;;;;;12.47;5.95;;;;;;;-4.14;83.97;100007.64;1731783;80;21075;-36
2021/12/28 09:13:32;;;;;;;11.28;5.90;;;;;;;-4.13;84.14;100004.28;1734078;82;21019;-36
2021/12/28 09:15:59;;;;;;;8.03;5.75;;;;;;;-4.10;84.23;99995.92;1727740;81;21020;-42
2021/12/28 09:18:27;;;;;;;12.65;6.95;;;;;;;-4.07;83.98;99994.39;1732716;82;21054;-35
2021/12/28 09:20:56;;;;;;;10.43;5.85;;;;;;;-4.06;83.83;99995.27;1731925;80;21354;-42
2021/12/28 09:23:23;;;;;;;11.53;5.97;;;;;;;-4.05;83.92;99986.42;1733361;80;21060;-36
2021/12/28 09:25:51;;;;;;;9.63;6.37;;;;;;;-4.04;83.85;99980.52;1734081;80;21048;-36
2021/12/28 09:28:18;;;;;;;10.30;5.95;;;;;;;-4.03;83.65;99978.83;1735567;81;21300;-43
2021/12/28 09:30:45;;;;;;;12.15;6.53;;;;;;;-4.02;83.67;99971.23;1733149;80;21107;-37
2021/12/28 09:33:16;;;;;;;12.33;6.65;;;;;;;-4.00;83.46;99970.06;1734012;80;21036;-43
2021/12/28 09:35:43;;;;;;;14.13;6.72;;;;;;;-4.00;83.57;99957.28;1734136;80;22220;-43
2021/12/28 09:38:09;;;;;;;10.43;6.00;;;;;;;-3.97;83.71;99954.00;1731778;81;21004;-43
2021/12/28 09:40:36;;;;;;;14.53;6.35;;;;;;;-3.96;83.58;99951.91;1733946;82;21056;-36
2021/12/28 09:43:09;;;;;;;11.18;6.03;;;;;;;-3.94;83.49;99948.66;1737308;80;21516;-42
2021/12/28 09:45:36;;;;;;;11.65;6.12;;;;;;;-3.92;83.34;99945.77;1737220;80;21672;-36
2021/12/28 09:48:04;;;;;;;10.82;6.20;;;;;;;-3.91;83.22;99937.30;1735496;80;21044;-36
2021/12/28 09:50:31;;;;;;;10.38;5.95;;;;;;;-3.89;82.92;99933.53;1734648;82;21528;-36
2021/12/28 09:53:00;;;;;;;9.53;6.83;;;;;;;-3.88;82.85;99935.31;1736725;81;21076;-36
2021/12/28 09:55:27;;;;;;;14.80;6.75;;;;;;;-3.86;82.76;99935.86;1734465;80;21060;-44
2021/12/28 09:57:53;;;;;;;12.78;6.47;;;;;;;-3.86;82.57;99932.42;1732192;82;21459;-42
2021/12/28 10:00:21;;;;;;;10.28;6.50;;;;;;;-3.88;82.42;99928.92;1731670;81;20981;-35
2021/12/28 10:02:49;;;;;;;11.43;6.33;;;;;;;-3.90;82.37;99922.44;1728937;80;21166;-43
2021/12/28 10:05:21;;;;;;;12.65;5.70;;;;;;;-3.93;82.53;99924.84;1733427;82;21044;-42
2021/12/28 10:07:57;;;;;;;11.88;6.55;;;;;;;-3.92;82.63;99915.09;1731771;80;21654;-37
2021/12/28 10:10:26;;;;;;;12.68;6.90;;;;;;;-3.89;82.74;99913.08;1735734;80;21522;-44
2021/12/28 10:12:58;;;;;;;11.28;6.10;;;;;;;-3.87;82.88;99907.67;1732126;82;21382;-43
2021/12/28 10:15:31;;;;;;;10.48;5.67;;;;;;;-3.84;83.03;99907.41;1700209;82;21037;-42
2021/12/28 10:18:04;;;;;;;9.60;5.50;;;;;;;-3.83;82.97;99888.70;1734935;80;21020;-46
2021/12/28 10:20:35;;;;;;;11.93;6.97;;;;;;;-3.81;83.10;99888.41;1732353;80;21416;-45
2021/12/28 10:23:11;;;;;;;18.07;6.05;;;;;;;-3.83;83.05;99876.33;1736573;80;21392;-47
2021/12/28 10:25:53;;;;;;;14.73;6.03;;;;;;;-3.86;82.92;99869.80;1708192;80;21040;-37
2021/12/28 10:28:28;;;;;;;12.98;5.67;;;;;;;-3.90;83.07;99860.20;1736179;80;20989;-37
2021/12/28 10:30:59;;;;;;;11.57;6.58;;;;;;;-3.93;83.21;99855.84;1732022;80;21121;-36
2021/12/28 10:33:29;;;;;;;9.90;5.67;;;;;;;-3.94;83.36;99847.70;1731886;80;20988;-38
2021/12/28 10:36:20;;;;;;;9.50;5.65;;;;;;;-3.93;83.67;99850.72;1704500;82;20992;-44
2021/12/28 10:39:08;;;;;;;9.23;4.95;;;;;;;-3.91;83.66;99852.07;1734715;82;21654;-45
2021/12/28 10:41:42;;;;;;;8.45;4.87;;;;;;;-3.91;83.77;99855.91;1726575;81;21038;-43
2021/12/28 10:44:09;;;;;;;8.93;5.35;;;;;;;-3.90;83.48;99849.98;1734782;80;21551;-41
2021/12/28 10:46:36;;;;;;;12.03;5.58;;;;;;;-3.86;83.62;99850.22;1738808;80;21020;-42
2021/12/28 10:49:04;;;;;;;11.60;5.87;;;;;;;-3.80;83.74;99847.09;1730722;81;20993;-35
2021/12/28 10:51:35;;;;;;;11.80;5.60;;;;;;;-3.71;83.57;99842.45;1732609;80;21741;-44
2021/12/28 10:56:36;;;;;;;13.03;5.30;;;;;;;-3.61;83.45;99838.23;1731089;80;21578;-44
2021/12/28 10:59:14;;;;;;;10.78;5.10;;;;;;;-3.57;82.94;99830.33;1735424;80;20995;-45
2021/12/28 11:01:43;;;;;;;9.95;5.47;;;;;;;-3.60;82.80;99833.59;1734434;82;21151;-37
2021/12/28 11:04:15;;;;;;;11.15;5.95;;;;;;;-3.60;82.94;99826.33;1673822;82;21001;-37
2021/12/28 11:06:49;;;;;;;9.58;4.28;;;;;;;-3.58;83.09;99826.02;1702187;80;21445;-36
2021/12/28 11:09:19;;;;;;;11.30;4.95;;;;;;;-3.57;83.07;99819.69;1732075;82;21816;-37
2021/12/28 11:11:48;;;;;;;8.30;4.03;;;;;;;-3.55;82.96;99820.63;1735011;80;21065;-43
2021/12/28 11:14:20;;;;;;;11.40;5.72;;;;;;;-3.56;82.99;99821.44;1731156;82;21023;-44
2021/12/28 11:16:59;;;;;;;10.88;5.78;;;;;;;-3.50;83.10;99814.06;1732004;81;21071;-44
2021/12/28 11:19:28;;;;;;;9.80;5.50;;;;;;;-3.50;82.75;99808.08;1735815;81;20972;-36
2021/12/28 11:22:08;;;;;;;11.00;5.17;;;;;;;-3.44;82.46;99812.20;1732803;80;21083;-44
2021/12/28 11:24:39;;;;;;;10.00;5.33;;;;;;;-3.43;82.40;99813.08;1736616;80;21443;-37
2021/12/28 11:27:07;;;;;;;7.83;5.58;;;;;;;-3.43;82.55;99816.51;1735750;81;21032;-44
2021/12/28 11:29:37;;;;;;;8.13;5.03;;;;;;;-3.40;82.47;99815.39;1732682;82;21005;-36
2021/12/28 11:32:07;;;;;;;8.78;4.75;;;;;;;-3.41;82.17;99811.09;1732072;82;21028;-45
2021/12/28 11:34:37;;;;;;;8.23;5.35;;;;;;;-3.42;81.95;99813.55;1736636;82;21579;-45
2021/12/28 11:37:06;;;;;;;9.68;5.53;;;;;;;-3.43;81.88;99815.23;1729139;80;21682;-37
2021/12/28 11:39:40;;;;;;;12.15;5.65;;;;;;;-3.44;82.00;99821.56;1732866;82;21548;-37
2021/12/28 11:42:08;;;;;;;7.53;4.95;;;;;;;-3.48;81.93;99809.02;1728594;80;21028;-37
2021/12/28 11:44:35;;;;;;;9.65;5.55;;;;;;;-3.52;82.01;99810.56;1731708;82;21012;-38
2021/12/28 11:47:06;;;;;;;10.38;5.92;;;;;;;-3.55;81.78;99805.69;1733350;82;21541;-37
2021/12/28 11:49:35;;;;;;;8.95;5.33;;;;;;;-3.56;81.71;99803.54;1729733;80;21003;-45
2021/12/28 11:52:05;;;;;;;9.73;5.47;;;;;;;-3.57;81.60;99806.91;1730471;80;21044;-35
2021/12/28 11:54:38;;;;;;;9.90;5.47;;;;;;;-3.57;81.64;99804.75;1740838;81;20961;-44
2021/12/28 11:57:11;;;;;;;7.47;4.55;;;;;;;-3.61;81.68;99794.77;1751479;80;21566;-44
2021/12/28 11:59:40;;;;;;;8.48;5.67;;;;;;;-3.64;81.87;99792.08;1747696;81;20973;-44
2021/12/28 12:02:13;;;;;;;14.25;6.33;;;;;;;-3.70;82.05;99801.13;1739359;81;21003;-44
2021/12/28 12:09:15;;;;;;;9.78;5.35;;;;;;;-3.80;82.18;99798.11;1802471;79;27869;-42
2021/12/28 12:12:16;;;;;;;10.70;5.80;;;;;;;-3.89;82.25;99792.54;1758478;80;21069;-36
2021/12/28 12:15:03;;;;;;;11.60;6.58;;;;;;;-3.92;82.47;99790.25;1743787;81;21635;-37
2021/12/28 12:17:44;;;;;;;30.72;12.70;;;;;;;-3.93;82.59;99782.98;1719947;81;21016;-37
2021/12/28 12:23:58;;;;;;;18.40;6.53;;;;;;;-3.90;82.33;99784.80;1808868;79;27051;-36
2021/12/28 12:26:33;;;;;;;50.40;19.07;;;;;;;-3.95;82.42;99783.70;1764047;80;21062;-44
2021/12/28 12:29:00;;;;;;;30.35;15.40;;;;;;;-3.96;82.57;99785.78;1755578;80;21849;-45
2021/12/28 12:31:33;;;;;;;14.25;7.90;;;;;;;-4.02;82.51;99790.19;1694562;84;21061;-45
2021/12/28 12:34:00;;;;;;;15.13;7.80;;;;;;;-4.07;82.49;99790.36;1696866;83;21045;-45
2021/12/28 12:36:35;;;;;;;11.78;6.55;;;;;;;-4.10;82.50;99779.59;1686679;83;21587;-45
2021/12/28 12:39:02;;;;;;;14.78;6.87;;;;;;;-4.11;82.32;99782.08;1703667;83;20981;-45
2021/12/28 12:41:45;;;;;;;15.85;6.65;;;;;;;-4.12;82.50;99778.63;1705724;83;21079;-37
2021/12/28 12:44:21;;;;;;;11.33;6.20;;;;;;;-4.11;82.30;99782.08;1693657;83;21013;-45
2021/12/28 12:46:52;;;;;;;12.40;7.28;;;;;;;-4.14;82.41;99785.34;1705960;83;21127;-45
2021/12/28 12:49:30;;;;;;;11.43;6.40;;;;;;;-4.14;82.55;99780.23;1721962;83;21052;-44
2021/12/28 12:52:05;;;;;;;14.30;7.47;;;;;;;-4.13;82.40;99773.44;1675769;84;21096;-36
2021/12/28 12:54:47;;;;;;;14.75;7.65;;;;;;;-4.13;82.16;99778.55;1672962;86;21718;-44
2021/12/28 12:57:28;;;;;;;13.68;7.22;;;;;;;-4.12;82.16;99777.75;1694617;83;21539;-44
2021/12/28 13:00:04;;;;;;;16.20;8.15;;;;;;;-4.14;81.95;99781.91;1702306;83;21068;-45
2021/12/28 13:02:34;;;;;;;14.03;7.25;;;;;;;-4.18;81.93;99779.59;1721878;81;21108;-44
2021/12/28 13:05:09;;;;;;;14.33;7.25;;;;;;;-4.20;82.02;99777.78;1725544;81;20997;-44
2021/12/28 13:07:38;;;;;;;14.20;6.65;;;;;;;-4.19;82.03;99767.63;1681319;83;21656;-36
2021/12/28 13:10:18;;;;;;;13.80;7.35;;;;;;;-4.17;82.12;99769.88;1692368;84;21053;-37
2021/12/28 13:12:53;;;;;;;10.13;5.90;;;;;;;-4.12;82.12;99768.80;1703501;82;21614;-37
2021/12/28 13:15:18;;;;;;;9.80;5.65;;;;;;;-4.10;81.97;99771.93;1708141;82;21028;-36
2021/12/28 13:17:47;;;;;;;13.68;7.47;;;;;;;-4.12;81.96;99768.80;1703349;82;21632;-37
2021/12/28 13:20:20;;;;;;;11.25;6.90;;;;;;;-4.14;82.08;99766.18;1704281;82;21900;-37
2021/12/28 13:22:59;;;;;;;11.73;6.28;;;;;;;-4.13;81.97;99769.20;1692561;84;21088;-37
2021/12/28 13:25:34;;;;;;;11.08;6.42;;;;;;;-4.17;81.84;99772.44;1746955;81;20964;-37
2021/12/28 13:28:05;;;;;;;11.93;6.47;;;;;;;-4.20;82.00;99768.83;1732152;81;21008;-36
2021/12/28 13:30:38;;;;;;;15.83;7.65;;;;;;;-4.24;82.20;99761.41;1739233;81;21095;-37
2021/12/28 13:33:08;;;;;;;17.23;8.73;;;;;;;-4.28;82.37;99765.91;1742385;82;21471;-36
2021/12/28 13:35:38;;;;;;;15.85;8.40;;;;;;;-4.35;82.41;99759.98;1738546;81;21064;-36
2021/12/28 13:38:09;;;;;;;27.02;10.80;;;;;;;-4.41;82.72;99772.05;1742698;82;21155;-44
2021/12/28 13:40:43;;;;;;;15.63;8.65;;;;;;;-4.49;82.64;99760.98;1745652;81;21120;-36
2021/12/28 13:43:22;;;;;;;15.05;8.88;;;;;;;-4.55;82.79;99758.59;1740601;82;21061;-45
2021/12/28 13:46:00;;;;;;;13.93;7.70;;;;;;;-4.57;82.96;99761.88;1735500;82;21021;-45
2021/12/28 13:48:39;;;;;;;14.33;7.95;;;;;;;-4.61;83.04;99759.55;1716464;83;21023;-37
2021/12/28 13:51:22;;;;;;;15.25;8.00;;;;;;;-4.64;83.30;99759.41;1725634;82;21040;-36
2021/12/28 13:53:50;;;;;;;;;;;;;;;-4.70;83.32;99757.78;1723475;82;20978;-37
2021/12/28 13:56:32;;;;;;;11.80;6.95;;;;;;;-4.84;83.58;99758.76;1724007;81;20405;-44
2021/12/28 13:58:55;;;;;;;12.45;7.37;;;;;;;-4.96;83.92;99758.12;1744649;82;21024;-37
2021/12/28 14:01:29;;;;;;;11.80;6.95;;;;;;;-5.04;84.28;99754.27;1732324;82;21092;-45
2021/12/28 14:04:04;;;;;;;12.05;7.15;;;;;;;-5.07;84.53;99754.12;1740147;82;21027;-36
2021/12/28 14:06:33;;;;;;;12.50;6.67;;;;;;;-5.12;84.78;99756.42;1693926;84;21092;-37
2021/12/28 14:09:03;;;;;;;13.10;7.55;;;;;;;-5.15;84.83;99756.27;1717657;82;21568;-36
2021/12/28 14:11:43;;;;;;;10.93;6.65;;;;;;;-5.22;84.90;99758.89;1722389;82;21065;-44
2021/12/28 14:14:26;;;;;;;13.13;7.55;;;;;;;-5.30;85.10;99755.03;1737681;82;21036;-45
2021/12/28 14:17:12;;;;;;;13.65;7.65;;;;;;;-5.33;85.29;99759.08;1744919;82;21029;-44
2021/12/28 14:19:39;;;;;;;10.72;6.72;;;;;;;-5.35;85.57;99761.16;1746855;82;21004;-44
2021/12/28 14:22:16;;;;;;;15.78;9.40;;;;;;;-5.37;85.67;99758.93;1746370;81;21592;-44
2021/12/28 14:24:49;;;;;;;25.57;11.85;;;;;;;-5.40;85.76;99761.30;1747290;82;21458;-44
2021/12/28 14:27:18;;;;;;;29.82;12.65;;;;;;;-5.41;85.86;99758.67;1744151;81;21065;-36
2021/12/28 14:29:45;;;;;;;41.60;15.35;;;;;;;-5.43;85.86;99757.72;1723299;82;21041;-36
2021/12/28 14:32:14;;;;;;;66.05;20.32;;;;;;;-5.44;86.10;99763.63;1725191;82;21088;-37
2021/12/28 14:34:46;;;;;;;110.85;32.35;;;;;;;-5.45;86.12;99761.84;1747142;82;21088;-36
2021/12/28 14:37:21;;;;;;;66.10;21.93;;;;;;;-5.48;86.16;99760.02;1744930;81;21049;-44
2021/12/28 14:39:55;;;;;;;19.92;8.80;;;;;;;-5.46;86.21;99756.27;1742742;82;21013;-44
2021/12/28 14:42:22;;;;;;;18.70;8.68;;;;;;;-5.46;85.89;99753.31;1746504;81;21124;-36
2021/12/28 14:44:51;;;;;;;14.53;7.87;;;;;;;-5.48;85.81;99742.56;1744066;82;20961;-37
2021/12/28 14:47:26;;;;;;;18.87;9.13;;;;;;;-5.45;85.72;99743.99;1744588;82;21024;-37
2021/12/28 14:49:55;;;;;;;16.57;8.48;;;;;;;-5.48;85.54;99733.24;1747349;82;21548;-37
2021/12/28 14:52:32;;;;;;;13.95;8.88;;;;;;;-5.48;85.50;99742.16;1723570;82;21601;-44
2021/12/28 14:55:14;;;;;;;14.93;8.48;;;;;;;-5.48;85.50;99740.89;1732799;82;21384;-36
2021/12/28 14:57:56;;;;;;;14.35;8.70;;;;;;;-5.46;85.31;99739.29;1729746;82;21079;-37
2021/12/28 15:00:27;;;;;;;16.82;8.10;;;;;;;-5.46;85.38;99742.24;1741749;81;21379;-37
2021/12/28 15:03:04;;;;;;;13.08;7.00;;;;;;;-5.44;85.33;99739.40;1718793;82;21065;-37
2021/12/28 15:05:47;;;;;;;12.65;7.62;;;;;;;-5.43;85.04;99734.37;1716228;81;21053;-36
2021/12/28 15:08:17;;;;;;;15.70;8.20;;;;;;;-5.47;84.86;99732.84;1745481;82;21101;-35
2021/12/28 15:10:46;;;;;;;12.13;7.42;;;;;;;-5.52;84.90;99732.59;1747511;82;21090;-36
2021/12/28 15:13:17;;;;;;;17.35;7.53;;;;;;;-5.53;85.11;99729.96;1747237;82;21058;-35
2021/12/28 15:15:44;;;;;;;18.05;9.63;;;;;;;-5.50;85.27;99723.77;1746922;82;21035;-43
2021/12/28 15:18:13;;;;;;;14.33;7.12;;;;;;;-5.53;85.22;99721.04;1746159;82;21566;-43
2021/12/28 15:20:42;;;;;;;15.08;7.87;;;;;;;-5.54;85.28;99726.94;1746422;82;21598;-43
2021/12/28 15:23:09;;;;;;;15.70;8.88;;;;;;;-5.57;85.19;99726.76;1746171;81;21590;-36
2021/12/28 15:25:36;;;;;;;16.35;7.50;;;;;;;-5.58;85.26;99725.88;1746447;82;21019;-36
2021/12/28 15:28:04;;;;;;;16.95;7.85;;;;;;;-5.58;85.40;99722.05;1730810;82;21613;-43
2021/12/28 15:30:33;;;;;;;14.70;8.63;;;;;;;-5.56;85.36;99719.22;1726410;81;21021;-44
2021/12/28 15:33:00;;;;;;;13.88;8.10;;;;;;;-5.56;85.07;99721.77;1747321;82;21090;-44
2021/12/28 15:35:29;;;;;;;16.17;7.78;;;;;;;-5.58;84.97;99723.73;1736293;82;21368;-36
2021/12/28 15:38:01;;;;;;;17.07;8.63;;;;;;;-5.59;84.94;99720.30;1708203;82;21045;-36
2021/12/28 15:40:25;;;;;;;15.75;7.53;;;;;;;-5.56;85.04;99722.16;1709128;82;21581;-43
2021/12/28 15:42:52;;;;;;;13.78;7.50;;;;;;;-5.51;84.86;99710.52;1709618;82;21057;-43
2021/12/28 15:45:19;;;;;;;12.50;8.05;;;;;;;-5.51;84.37;99715.22;1709573;82;21072;-37
2021/12/28 15:47:46;;;;;;;15.55;8.28;;;;;;;-5.53;84.32;99716.81;1724793;82;21080;-43
2021/12/28 15:50:13;;;;;;;14.35;7.85;;;;;;;-5.52;84.35;99715.14;1747105;81;21039;-40
2021/12/28 15:52:40;;;;;;;15.45;8.03;;;;;;;-5.49;84.21;99725.52;1745593;82;21484;-36
2021/12/28 15:55:08;;;;;;;13.70;7.15;;;;;;;-5.49;83.94;99722.57;1742707;82;21037;-36
2021/12/28 15:57:34;;;;;;;12.25;6.53;;;;;;;-5.47;83.83;99726.47;1731250;81;21052;-36
2021/12/28 16:00:04;;;;;;;15.08;8.75;;;;;;;-5.45;83.81;99726.14;1746910;82;21045;-36
2021/12/28 16:02:35;;;;;;;16.55;8.88;;;;;;;-5.42;83.69;99734.84;1744029;81;21659;-43
2021/12/28 16:05:03;;;;;;;11.93;7.67;;;;;;;-5.38;83.56;99730.41;1747103;82;21572;-36
2021/12/28 16:07:32;;;;;;;14.78;8.33;;;;;;;-5.34;83.23;99727.60;1745420;81;21048;-36
2021/12/28 16:10:00;;;;;;;16.42;7.95;;;;;;;-5.33;83.04;99724.66;1742908;82;21014;-35
2021/12/28 16:12:27;;;;;;;15.30;7.60;;;;;;;-5.31;82.92;99721.41;1746079;81;21025;-35
2021/12/28 16:14:54;;;;;;;15.15;7.25;;;;;;;-5.30;82.80;99717.18;1742912;82;21049;-37
2021/12/28 16:17:23;;;;;;;12.25;6.78;;;;;;;-5.31;82.58;99714.16;1747229;82;21507;-39
2021/12/28 16:19:50;;;;;;;13.83;7.30;;;;;;;-5.29;82.56;99717.66;1746324;82;21558;-44
2021/12/28 16:22:19;;;;;;;13.35;8.70;;;;;;;-5.29;82.42;99710.87;1707674;82;21573;-44
2021/12/28 16:24:46;;;;;;;12.18;7.15;;;;;;;-5.28;82.36;99704.97;1716219;83;21108;-36
2021/12/28 16:27:15;;;;;;;16.00;7.53;;;;;;;-5.27;82.23;99704.20;1718560;82;21052;-36
2021/12/28 16:29:42;;;;;;;13.68;8.28;;;;;;;-5.25;82.07;99704.28;1726920;82;21462;-36
2021/12/28 16:32:09;;;;;;;16.32;8.18;;;;;;;-5.26;81.89;99712.33;1756220;81;21067;-44
2021/12/28 16:34:36;;;;;;;11.00;6.60;;;;;;;-5.26;81.80;99706.36;1747804;82;21103;-44
2021/12/28 16:37:12;;;;;;;12.15;7.08;;;;;;;-5.27;81.65;99700.38;1745159;81;21057;-44
2021/12/28 16:39:39;;;;;;;14.83;7.25;;;;;;;-5.28;81.64;99692.22;1725058;83;21064;-43
2021/12/28 16:42:06;;;;;;;12.90;7.80;;;;;;;-5.26;81.67;99685.55;1738743;82;21085;-44
2021/12/28 16:44:34;;;;;;;13.08;7.25;;;;;;;-5.25;81.57;99686.42;1735072;82;21087;-42
2021/12/28 16:47:03;;;;;;;13.45;6.30;;;;;;;-5.26;81.45;99688.50;1735201;81;21006;-34
2021/12/28 16:49:29;;;;;;;12.70;7.20;;;;;;;-5.26;81.36;99699.58;1742307;82;21529;-39
2021/12/28 16:51:56;;;;;;;15.53;6.78;;;;;;;-5.26;81.30;99696.16;1725355;82;21028;-35
2021/12/28 16:54:23;;;;;;;12.45;6.95;;;;;;;-5.25;81.38;99684.75;1699850;84;21049;-43
2021/12/28 16:56:52;;;;;;;12.05;5.30;;;;;;;-5.25;81.28;99674.55;1753189;82;21135;-43
2021/12/28 16:59:19;;;;;;;11.08;6.22;;;;;;;-5.24;81.18;99678.84;1725433;83;21622;-35
2021/12/28 17:01:46;;;;;;;11.60;6.10;;;;;;;-5.24;81.10;99680.52;1718440;82;21066;-43
2021/12/28 17:04:13;;;;;;;13.93;6.45;;;;;;;-5.22;81.21;99682.74;1744870;81;21528;-35
2021/12/28 17:06:41;;;;;;;10.35;6.33;;;;;;;-5.21;81.08;99679.42;1752778;82;21038;-43
2021/12/28 17:09:09;;;;;;;11.15;6.33;;;;;;;-5.20;80.96;99681.17;1755075;82;21054;-43
2021/12/28 17:11:37;;;;;;;10.03;5.47;;;;;;;-5.19;80.88;99679.09;1735855;82;21057;-44
2021/12/28 17:14:06;;;;;;;12.25;6.50;;;;;;;-5.20;80.80;99683.72;1749530;82;21024;-36
2021/12/28 17:16:34;;;;;;;12.13;6.20;;;;;;;-5.22;80.83;99681.47;1754870;82;21588;-35
2021/12/28 17:19:01;;;;;;;13.80;6.47;;;;;;;-5.22;80.89;99679.83;1754722;82;21518;-43
2021/12/28 17:21:28;;;;;;;11.35;6.62;;;;;;;-5.20;80.90;99678.63;1754791;81;21067;-44
2021/12/28 17:23:55;;;;;;;10.28;5.15;;;;;;;-5.18;80.92;99680.84;1736053;81;21030;-36
2021/12/28 17:26:22;;;;;;;10.53;5.12;;;;;;;-5.17;80.87;99684.73;1760367;81;21057;-36
2021/12/28 17:28:49;;;;;;;11.70;6.20;;;;;;;-5.18;80.77;99681.72;1760295;81;21508;-36
2021/12/28 17:31:18;;;;;;;11.20;6.22;;;;;;;-5.20;80.89;99679.50;1741717;81;21054;-44
2021/12/28 17:33:45;;;;;;;16.10;5.75;;;;;;;-5.19;81.02;99674.87;1731330;81;21052;-36
2021/12/28 17:36:12;;;;;;;11.88;6.47;;;;;;;-5.19;80.97;99667.62;1741951;81;21005;-43
2021/12/28 17:38:39;;;;;;;11.25;6.15;;;;;;;-5.19;81.16;99666.34;1744634;81;21024;-43
2021/12/28 17:41:08;;;;;;;9.08;5.53;;;;;;;-5.18;81.30;99665.54;1743172;81;21858;-43
2021/12/28 17:43:37;;;;;;;14.05;5.37;;;;;;;-5.18;81.32;99667.69;1745873;81;21819;-43
2021/12/28 17:46:05;;;;;;;11.68;6.35;;;;;;;-5.20;81.44;99666.74;1715254;82;21064;-44